sensor_id;sensor_type;location;lat;lon;timestamp;P1;durP1;ratioP1;P2;durP2;ratioP2
61785;SDS011;47692;53.714;11.372;2023-08-31T00:01:11;7.38;;;5.22;;
61785;SDS011;47692;53.714;11.372;2023-08-31T00:03:36;8.35;;;5.47;;
61785;SDS011;47692;53.714;11.372;2023-08-31T00:06:02;7.80;;;5.35;;
61785;SDS011;47692;53.714;11.372;2023-08-31T00:08:28;8.95;;;5.75;;
61785;SDS011;47692;53.714;11.372;2023-08-31T00:10:54;10.23;;;5.85;;
61785;SDS011;47692;53.714;11.372;2023-08-31T00:13:23;8.23;;;5.93;;
61785;SDS011;47692;53.714;11.372;2023-08-31T00:15:49;9.98;;;6.80;;
61785;SDS011;47692;53.714;11.372;2023-08-31T00:18:14;9.77;;;6.50;;
61785;SDS011;47692;53.714;11.372;2023-08-31T00:20:41;9.70;;;5.75;;
61785;SDS011;47692;53.714;11.372;2023-08-31T00:23:07;9.27;;;6.50;;
61785;SDS011;47692;53.714;11.372;2023-08-31T00:25:32;9.80;;;6.68;;
61785;SDS011;47692;53.714;11.372;2023-08-31T00:27:58;11.63;;;6.15;;
61785;SDS011;47692;53.714;11.372;2023-08-31T00:30:29;10.35;;;6.47;;
61785;SDS011;47692;53.714;11.372;2023-08-31T00:32:55;10.77;;;7.07;;
61785;SDS011;47692;53.714;11.372;2023-08-31T00:35:25;9.63;;;6.55;;
61785;SDS011;47692;53.714;11.372;2023-08-31T00:37:52;11.10;;;7.07;;
61785;SDS011;47692;53.714;11.372;2023-08-31T00:40:20;10.55;;;7.40;;
61785;SDS011;47692;53.714;11.372;2023-08-31T00:42:45;11.52;;;7.60;;
61785;SDS011;47692;53.714;11.372;2023-08-31T00:45:11;10.15;;;7.22;;
61785;SDS011;47692;53.714;11.372;2023-08-31T00:47:36;11.02;;;7.38;;
61785;SDS011;47692;53.714;11.372;2023-08-31T00:50:02;11.23;;;7.75;;
61785;SDS011;47692;53.714;11.372;2023-08-31T00:52:27;12.77;;;8.20;;
61785;SDS011;47692;53.714;11.372;2023-08-31T00:54:53;11.80;;;7.97;;
61785;SDS011;47692;53.714;11.372;2023-08-31T00:57:19;11.27;;;7.53;;
61785;SDS011;47692;53.714;11.372;2023-08-31T00:59:44;13.68;;;7.50;;
61785;SDS011;47692;53.714;11.372;2023-08-31T01:02:17;12.88;;;8.27;;
61785;SDS011;47692;53.714;11.372;2023-08-31T01:07:36;12.10;;;7.78;;
61785;SDS011;47692;53.714;11.372;2023-08-31T01:13:08;12.30;;;8.20;;
61785;SDS011;47692;53.714;11.372;2023-08-31T01:15:39;13.07;;;9.02;;
61785;SDS011;47692;53.714;11.372;2023-08-31T01:18:09;15.50;;;9.68;;
61785;SDS011;47692;53.714;11.372;2023-08-31T01:23:20;15.05;;;9.18;;
61785;SDS011;47692;53.714;11.372;2023-08-31T01:25:46;14.52;;;9.70;;
61785;SDS011;47692;53.714;11.372;2023-08-31T01:28:13;14.52;;;9.80;;
61785;SDS011;47692;53.714;11.372;2023-08-31T01:30:39;17.73;;;10.48;;
61785;SDS011;47692;53.714;11.372;2023-08-31T01:33:04;15.93;;;9.73;;
61785;SDS011;47692;53.714;11.372;2023-08-31T01:35:30;17.33;;;10.45;;
61785;SDS011;47692;53.714;11.372;2023-08-31T01:38:08;16.02;;;10.68;;
61785;SDS011;47692;53.714;11.372;2023-08-31T01:40:36;15.38;;;10.65;;
61785;SDS011;47692;53.714;11.372;2023-08-31T01:43:06;18.15;;;10.45;;
61785;SDS011;47692;53.714;11.372;2023-08-31T01:45:33;16.83;;;10.68;;
61785;SDS011;47692;53.714;11.372;2023-08-31T01:48:00;17.77;;;10.68;;
61785;SDS011;47692;53.714;11.372;2023-08-31T01:50:26;18.63;;;11.35;;
61785;SDS011;47692;53.714;11.372;2023-08-31T01:52:52;17.58;;;11.27;;
61785;SDS011;47692;53.714;11.372;2023-08-31T01:55:21;18.48;;;11.52;;
61785;SDS011;47692;53.714;11.372;2023-08-31T01:57:49;19.77;;;11.13;;
61785;SDS011;47692;53.714;11.372;2023-08-31T02:00:16;18.52;;;10.95;;
61785;SDS011;47692;53.714;11.372;2023-08-31T02:02:42;15.77;;;10.55;;
61785;SDS011;47692;53.714;11.372;2023-08-31T02:05:08;19.25;;;11.55;;
61785;SDS011;47692;53.714;11.372;2023-08-31T02:07:34;19.20;;;10.75;;
61785;SDS011;47692;53.714;11.372;2023-08-31T02:09:59;17.85;;;11.32;;
61785;SDS011;47692;53.714;11.372;2023-08-31T02:12:24;20.02;;;11.95;;
61785;SDS011;47692;53.714;11.372;2023-08-31T02:14:50;18.13;;;11.45;;
61785;SDS011;47692;53.714;11.372;2023-08-31T02:17:15;19.52;;;11.75;;
61785;SDS011;47692;53.714;11.372;2023-08-31T02:19:41;20.98;;;12.35;;
61785;SDS011;47692;53.714;11.372;2023-08-31T02:22:06;19.08;;;11.45;;
61785;SDS011;47692;53.714;11.372;2023-08-31T02:24:31;20.83;;;12.20;;
61785;SDS011;47692;53.714;11.372;2023-08-31T02:26:56;21.60;;;12.63;;
61785;SDS011;47692;53.714;11.372;2023-08-31T02:29:22;20.02;;;12.57;;
61785;SDS011;47692;53.714;11.372;2023-08-31T02:31:47;23.42;;;13.07;;
61785;SDS011;47692;53.714;11.372;2023-08-31T02:34:13;20.42;;;12.13;;
61785;SDS011;47692;53.714;11.372;2023-08-31T02:36:38;24.05;;;13.00;;
61785;SDS011;47692;53.714;11.372;2023-08-31T02:39:03;22.30;;;13.20;;
61785;SDS011;47692;53.714;11.372;2023-08-31T02:41:29;21.45;;;13.30;;
61785;SDS011;47692;53.714;11.372;2023-08-31T02:43:54;23.40;;;13.43;;
61785;SDS011;47692;53.714;11.372;2023-08-31T02:46:20;22.27;;;13.15;;
61785;SDS011;47692;53.714;11.372;2023-08-31T02:48:45;25.83;;;13.07;;
61785;SDS011;47692;53.714;11.372;2023-08-31T02:51:11;21.75;;;13.23;;
61785;SDS011;47692;53.714;11.372;2023-08-31T02:53:36;24.15;;;13.75;;
61785;SDS011;47692;53.714;11.372;2023-08-31T02:56:02;24.85;;;14.10;;
61785;SDS011;47692;53.714;11.372;2023-08-31T02:58:27;25.25;;;14.00;;
61785;SDS011;47692;53.714;11.372;2023-08-31T03:00:53;25.13;;;13.43;;
61785;SDS011;47692;53.714;11.372;2023-08-31T03:03:19;22.42;;;13.15;;
61785;SDS011;47692;53.714;11.372;2023-08-31T03:05:44;21.48;;;12.55;;
61785;SDS011;47692;53.714;11.372;2023-08-31T03:08:10;23.10;;;14.38;;
61785;SDS011;47692;53.714;11.372;2023-08-31T03:10:36;23.35;;;13.02;;
61785;SDS011;47692;53.714;11.372;2023-08-31T03:13:02;28.40;;;14.27;;
61785;SDS011;47692;53.714;11.372;2023-08-31T03:15:27;24.67;;;13.40;;
61785;SDS011;47692;53.714;11.372;2023-08-31T03:17:53;23.88;;;12.75;;
61785;SDS011;47692;53.714;11.372;2023-08-31T03:20:18;24.38;;;12.85;;
61785;SDS011;47692;53.714;11.372;2023-08-31T03:22:44;22.42;;;12.98;;
61785;SDS011;47692;53.714;11.372;2023-08-31T03:25:09;22.45;;;12.50;;
61785;SDS011;47692;53.714;11.372;2023-08-31T03:27:34;25.80;;;14.13;;
61785;SDS011;47692;53.714;11.372;2023-08-31T03:30:00;24.80;;;13.65;;
61785;SDS011;47692;53.714;11.372;2023-08-31T03:32:26;27.52;;;14.02;;
61785;SDS011;47692;53.714;11.372;2023-08-31T03:34:51;23.70;;;12.43;;
61785;SDS011;47692;53.714;11.372;2023-08-31T03:37:16;21.85;;;11.55;;
61785;SDS011;47692;53.714;11.372;2023-08-31T03:39:42;21.27;;;11.90;;
61785;SDS011;47692;53.714;11.372;2023-08-31T03:42:08;22.00;;;11.23;;
61785;SDS011;47692;53.714;11.372;2023-08-31T03:44:34;17.85;;;10.52;;
61785;SDS011;47692;53.714;11.372;2023-08-31T03:47:00;21.98;;;11.13;;
61785;SDS011;47692;53.714;11.372;2023-08-31T03:49:26;18.75;;;11.30;;
61785;SDS011;47692;53.714;11.372;2023-08-31T03:51:51;19.15;;;10.88;;
61785;SDS011;47692;53.714;11.372;2023-08-31T03:54:18;18.13;;;11.18;;
61785;SDS011;47692;53.714;11.372;2023-08-31T03:56:44;20.15;;;11.77;;
61785;SDS011;47692;53.714;11.372;2023-08-31T03:59:09;19.25;;;11.82;;
61785;SDS011;47692;53.714;11.372;2023-08-31T04:01:35;21.55;;;12.45;;
61785;SDS011;47692;53.714;11.372;2023-08-31T04:04:00;24.38;;;11.73;;
61785;SDS011;47692;53.714;11.372;2023-08-31T04:06:25;22.60;;;12.48;;
61785;SDS011;47692;53.714;11.372;2023-08-31T04:08:52;20.45;;;12.48;;
61785;SDS011;47692;53.714;11.372;2023-08-31T04:11:17;21.17;;;12.38;;
61785;SDS011;47692;53.714;11.372;2023-08-31T04:13:43;24.17;;;12.35;;
61785;SDS011;47692;53.714;11.372;2023-08-31T04:16:08;23.23;;;12.93;;
61785;SDS011;47692;53.714;11.372;2023-08-31T04:18:33;21.20;;;12.48;;
61785;SDS011;47692;53.714;11.372;2023-08-31T04:21:00;22.38;;;13.27;;
61785;SDS011;47692;53.714;11.372;2023-08-31T04:23:28;24.92;;;12.77;;
61785;SDS011;47692;53.714;11.372;2023-08-31T04:25:54;25.27;;;13.30;;
61785;SDS011;47692;53.714;11.372;2023-08-31T04:28:20;22.80;;;13.32;;
61785;SDS011;47692;53.714;11.372;2023-08-31T04:30:45;24.15;;;11.98;;
61785;SDS011;47692;53.714;11.372;2023-08-31T04:33:10;23.92;;;12.43;;
61785;SDS011;47692;53.714;11.372;2023-08-31T04:35:36;24.30;;;12.25;;
61785;SDS011;47692;53.714;11.372;2023-08-31T04:38:01;23.13;;;13.32;;
61785;SDS011;47692;53.714;11.372;2023-08-31T04:40:27;23.17;;;12.40;;
61785;SDS011;47692;53.714;11.372;2023-08-31T04:42:53;25.35;;;12.75;;
61785;SDS011;47692;53.714;11.372;2023-08-31T04:45:18;23.13;;;12.63;;
61785;SDS011;47692;53.714;11.372;2023-08-31T04:47:44;24.85;;;12.48;;
61785;SDS011;47692;53.714;11.372;2023-08-31T04:50:09;21.85;;;12.60;;
61785;SDS011;47692;53.714;11.372;2023-08-31T04:52:34;25.65;;;13.65;;
61785;SDS011;47692;53.714;11.372;2023-08-31T04:55:01;22.73;;;12.25;;
61785;SDS011;47692;53.714;11.372;2023-08-31T04:57:28;22.30;;;12.80;;
61785;SDS011;47692;53.714;11.372;2023-08-31T04:59:54;20.55;;;12.23;;
61785;SDS011;47692;53.714;11.372;2023-08-31T05:02:19;18.45;;;11.07;;
61785;SDS011;47692;53.714;11.372;2023-08-31T05:04:44;20.50;;;11.05;;
61785;SDS011;47692;53.714;11.372;2023-08-31T05:07:10;19.92;;;11.38;;
61785;SDS011;47692;53.714;11.372;2023-08-31T05:09:35;21.27;;;11.07;;
61785;SDS011;47692;53.714;11.372;2023-08-31T05:12:01;16.05;;;9.90;;
61785;SDS011;47692;53.714;11.372;2023-08-31T05:14:28;15.88;;;10.55;;
61785;SDS011;47692;53.714;11.372;2023-08-31T05:16:53;16.92;;;9.95;;
61785;SDS011;47692;53.714;11.372;2023-08-31T05:19:19;19.90;;;10.13;;
61785;SDS011;47692;53.714;11.372;2023-08-31T05:21:44;16.33;;;9.43;;
61785;SDS011;47692;53.714;11.372;2023-08-31T05:24:09;17.83;;;10.35;;
61785;SDS011;47692;53.714;11.372;2023-08-31T05:26:35;16.15;;;9.85;;
61785;SDS011;47692;53.714;11.372;2023-08-31T05:29:00;17.70;;;9.77;;
61785;SDS011;47692;53.714;11.372;2023-08-31T05:31:25;20.33;;;10.98;;
61785;SDS011;47692;53.714;11.372;2023-08-31T05:33:50;16.92;;;10.23;;
61785;SDS011;47692;53.714;11.372;2023-08-31T05:36:16;16.55;;;9.82;;
61785;SDS011;47692;53.714;11.372;2023-08-31T05:38:41;15.02;;;9.35;;
61785;SDS011;47692;53.714;11.372;2023-08-31T05:41:07;18.17;;;9.82;;
61785;SDS011;47692;53.714;11.372;2023-08-31T05:43:36;15.85;;;9.30;;
61785;SDS011;47692;53.714;11.372;2023-08-31T05:46:05;13.35;;;8.55;;
61785;SDS011;47692;53.714;11.372;2023-08-31T05:48:30;16.60;;;9.52;;
61785;SDS011;47692;53.714;11.372;2023-08-31T05:50:56;15.70;;;9.30;;
61785;SDS011;47692;53.714;11.372;2023-08-31T05:53:22;14.88;;;8.52;;
61785;SDS011;47692;53.714;11.372;2023-08-31T05:55:47;17.98;;;8.13;;
61785;SDS011;47692;53.714;11.372;2023-08-31T05:58:12;15.27;;;9.43;;
61785;SDS011;47692;53.714;11.372;2023-08-31T06:00:38;17.92;;;9.57;;
61785;SDS011;47692;53.714;11.372;2023-08-31T06:03:03;14.55;;;8.95;;
61785;SDS011;47692;53.714;11.372;2023-08-31T06:05:30;15.60;;;9.38;;
61785;SDS011;47692;53.714;11.372;2023-08-31T06:07:56;16.90;;;8.88;;
61785;SDS011;47692;53.714;11.372;2023-08-31T06:10:22;15.40;;;9.00;;
61785;SDS011;47692;53.714;11.372;2023-08-31T06:12:48;14.65;;;8.80;;
61785;SDS011;47692;53.714;11.372;2023-08-31T06:15:14;15.00;;;9.00;;
61785;SDS011;47692;53.714;11.372;2023-08-31T06:17:40;14.10;;;8.35;;
61785;SDS011;47692;53.714;11.372;2023-08-31T06:20:06;14.75;;;8.38;;
61785;SDS011;47692;53.714;11.372;2023-08-31T06:22:33;15.40;;;8.95;;
61785;SDS011;47692;53.714;11.372;2023-08-31T06:24:58;14.27;;;8.20;;
61785;SDS011;47692;53.714;11.372;2023-08-31T06:27:23;15.90;;;8.32;;
61785;SDS011;47692;53.714;11.372;2023-08-31T06:29:49;19.90;;;8.75;;
61785;SDS011;47692;53.714;11.372;2023-08-31T06:32:15;11.13;;;7.50;;
61785;SDS011;47692;53.714;11.372;2023-08-31T06:34:41;14.25;;;8.07;;
61785;SDS011;47692;53.714;11.372;2023-08-31T06:37:06;11.90;;;7.57;;
61785;SDS011;47692;53.714;11.372;2023-08-31T06:39:32;12.93;;;6.72;;
61785;SDS011;47692;53.714;11.372;2023-08-31T06:41:58;11.55;;;6.95;;
61785;SDS011;47692;53.714;11.372;2023-08-31T06:44:23;12.30;;;6.50;;
61785;SDS011;47692;53.714;11.372;2023-08-31T06:46:49;10.60;;;5.88;;
61785;SDS011;47692;53.714;11.372;2023-08-31T06:49:14;12.50;;;6.60;;
61785;SDS011;47692;53.714;11.372;2023-08-31T06:51:40;10.65;;;6.30;;
61785;SDS011;47692;53.714;11.372;2023-08-31T06:54:05;10.38;;;6.15;;
61785;SDS011;47692;53.714;11.372;2023-08-31T06:56:34;9.20;;;5.63;;
61785;SDS011;47692;53.714;11.372;2023-08-31T06:59:00;11.70;;;6.10;;
61785;SDS011;47692;53.714;11.372;2023-08-31T07:01:26;9.85;;;5.55;;
61785;SDS011;47692;53.714;11.372;2023-08-31T07:03:52;11.07;;;4.82;;
61785;SDS011;47692;53.714;11.372;2023-08-31T07:06:18;9.35;;;4.57;;
61785;SDS011;47692;53.714;11.372;2023-08-31T07:08:43;6.43;;;4.30;;
61785;SDS011;47692;53.714;11.372;2023-08-31T07:11:10;7.97;;;4.70;;
61785;SDS011;47692;53.714;11.372;2023-08-31T07:13:36;8.80;;;4.00;;
61785;SDS011;47692;53.714;11.372;2023-08-31T07:16:01;8.82;;;3.83;;
61785;SDS011;47692;53.714;11.372;2023-08-31T07:18:27;5.50;;;3.20;;
61785;SDS011;47692;53.714;11.372;2023-08-31T07:20:52;8.18;;;3.03;;
61785;SDS011;47692;53.714;11.372;2023-08-31T07:23:17;7.20;;;3.13;;
61785;SDS011;47692;53.714;11.372;2023-08-31T07:25:42;5.22;;;2.70;;
61785;SDS011;47692;53.714;11.372;2023-08-31T07:28:08;4.60;;;2.80;;
61785;SDS011;47692;53.714;11.372;2023-08-31T07:30:34;5.35;;;3.10;;
61785;SDS011;47692;53.714;11.372;2023-08-31T07:32:59;4.45;;;2.28;;
61785;SDS011;47692;53.714;11.372;2023-08-31T07:35:28;4.60;;;2.35;;
61785;SDS011;47692;53.714;11.372;2023-08-31T07:37:53;7.18;;;2.58;;
61785;SDS011;47692;53.714;11.372;2023-08-31T07:40:19;4.53;;;1.92;;
61785;SDS011;47692;53.714;11.372;2023-08-31T07:42:44;6.05;;;2.05;;
61785;SDS011;47692;53.714;11.372;2023-08-31T07:45:09;4.50;;;2.00;;
61785;SDS011;47692;53.714;11.372;2023-08-31T07:47:35;5.13;;;2.03;;
61785;SDS011;47692;53.714;11.372;2023-08-31T07:50:00;4.93;;;1.88;;
61785;SDS011;47692;53.714;11.372;2023-08-31T07:52:26;6.40;;;1.92;;
61785;SDS011;47692;53.714;11.372;2023-08-31T07:54:51;4.47;;;1.80;;
61785;SDS011;47692;53.714;11.372;2023-08-31T07:57:17;4.90;;;1.85;;
61785;SDS011;47692;53.714;11.372;2023-08-31T07:59:42;4.97;;;1.77;;
61785;SDS011;47692;53.714;11.372;2023-08-31T08:02:07;3.95;;;2.00;;
61785;SDS011;47692;53.714;11.372;2023-08-31T08:04:33;5.95;;;2.25;;
61785;SDS011;47692;53.714;11.372;2023-08-31T08:06:58;3.70;;;2.20;;
61785;SDS011;47692;53.714;11.372;2023-08-31T08:09:23;7.47;;;2.72;;
61785;SDS011;47692;53.714;11.372;2023-08-31T08:11:48;4.32;;;1.90;;
61785;SDS011;47692;53.714;11.372;2023-08-31T08:14:14;4.63;;;1.80;;
61785;SDS011;47692;53.714;11.372;2023-08-31T08:16:40;3.17;;;1.55;;
61785;SDS011;47692;53.714;11.372;2023-08-31T08:19:06;7.70;;;1.90;;
61785;SDS011;47692;53.714;11.372;2023-08-31T08:21:32;4.35;;;1.60;;
61785;SDS011;47692;53.714;11.372;2023-08-31T08:23:57;4.65;;;1.45;;
61785;SDS011;47692;53.714;11.372;2023-08-31T08:26:22;10.93;;;1.90;;
61785;SDS011;47692;53.714;11.372;2023-08-31T08:28:48;4.55;;;1.33;;
61785;SDS011;47692;53.714;11.372;2023-08-31T08:31:13;6.13;;;1.58;;
61785;SDS011;47692;53.714;11.372;2023-08-31T08:33:38;4.07;;;1.40;;
61785;SDS011;47692;53.714;11.372;2023-08-31T08:36:04;5.35;;;1.73;;
61785;SDS011;47692;53.714;11.372;2023-08-31T08:38:29;3.20;;;1.40;;
61785;SDS011;47692;53.714;11.372;2023-08-31T08:40:54;2.55;;;1.60;;
61785;SDS011;47692;53.714;11.372;2023-08-31T08:43:24;4.95;;;1.30;;
61785;SDS011;47692;53.714;11.372;2023-08-31T08:45:51;4.53;;;1.30;;
61785;SDS011;47692;53.714;11.372;2023-08-31T08:48:16;3.35;;;1.23;;
61785;SDS011;47692;53.714;11.372;2023-08-31T08:50:43;4.30;;;1.20;;
61785;SDS011;47692;53.714;11.372;2023-08-31T08:53:09;4.97;;;1.13;;
61785;SDS011;47692;53.714;11.372;2023-08-31T08:55:36;3.80;;;1.30;;
61785;SDS011;47692;53.714;11.372;2023-08-31T08:58:02;6.78;;;0.98;;
61785;SDS011;47692;53.714;11.372;2023-08-31T09:00:28;3.95;;;1.10;;
61785;SDS011;47692;53.714;11.372;2023-08-31T09:02:55;4.20;;;0.98;;
61785;SDS011;47692;53.714;11.372;2023-08-31T09:05:20;4.38;;;1.10;;
61785;SDS011;47692;53.714;11.372;2023-08-31T09:08:06;4.63;;;1.23;;
61785;SDS011;47692;53.714;11.372;2023-08-31T09:10:41;4.53;;;1.00;;
61785;SDS011;47692;53.714;11.372;2023-08-31T09:13:11;2.25;;;0.80;;
61785;SDS011;47692;53.714;11.372;2023-08-31T09:15:47;2.60;;;0.80;;
61785;SDS011;47692;53.714;11.372;2023-08-31T09:18:22;5.75;;;0.80;;
61785;SDS011;47692;53.714;11.372;2023-08-31T09:20:56;2.72;;;0.80;;
61785;SDS011;47692;53.714;11.372;2023-08-31T09:23:22;2.25;;;0.93;;
61785;SDS011;47692;53.714;11.372;2023-08-31T09:25:48;4.45;;;0.70;;
61785;SDS011;47692;53.714;11.372;2023-08-31T09:28:16;1.60;;;0.60;;
61785;SDS011;47692;53.714;11.372;2023-08-31T09:30:44;1.70;;;0.70;;
61785;SDS011;47692;53.714;11.372;2023-08-31T09:33:15;2.33;;;0.73;;
61785;SDS011;47692;53.714;11.372;2023-08-31T09:35:47;4.22;;;0.80;;
61785;SDS011;47692;53.714;11.372;2023-08-31T09:38:14;4.87;;;0.80;;
61785;SDS011;47692;53.714;11.372;2023-08-31T09:40:39;2.88;;;0.68;;
61785;SDS011;47692;53.714;11.372;2023-08-31T09:43:05;3.15;;;0.68;;
61785;SDS011;47692;53.714;11.372;2023-08-31T09:45:31;2.15;;;0.60;;
61785;SDS011;47692;53.714;11.372;2023-08-31T09:47:59;1.02;;;0.50;;
61785;SDS011;47692;53.714;11.372;2023-08-31T09:50:26;1.42;;;0.60;;
61785;SDS011;47692;53.714;11.372;2023-08-31T09:52:55;4.05;;;0.70;;
61785;SDS011;47692;53.714;11.372;2023-08-31T09:55:24;1.42;;;0.70;;
61785;SDS011;47692;53.714;11.372;2023-08-31T09:57:53;2.15;;;0.70;;
61785;SDS011;47692;53.714;11.372;2023-08-31T10:00:21;3.65;;;0.60;;
61785;SDS011;47692;53.714;11.372;2023-08-31T10:02:47;3.13;;;0.60;;
61785;SDS011;47692;53.714;11.372;2023-08-31T10:05:13;2.83;;;0.68;;
61785;SDS011;47692;53.714;11.372;2023-08-31T10:07:39;1.55;;;0.50;;
61785;SDS011;47692;53.714;11.372;2023-08-31T10:10:05;2.22;;;0.60;;
61785;SDS011;47692;53.714;11.372;2023-08-31T10:12:31;2.83;;;0.80;;
61785;SDS011;47692;53.714;11.372;2023-08-31T10:14:58;2.38;;;0.73;;
61785;SDS011;47692;53.714;11.372;2023-08-31T10:17:25;3.15;;;0.63;;
61785;SDS011;47692;53.714;11.372;2023-08-31T10:19:52;2.63;;;0.68;;
61785;SDS011;47692;53.714;11.372;2023-08-31T10:22:17;2.15;;;0.73;;
61785;SDS011;47692;53.714;11.372;2023-08-31T10:27:41;1.27;;;0.65;;
61785;SDS011;47692;53.714;11.372;2023-08-31T10:33:01;0.93;;;0.45;;
61785;SDS011;47692;53.714;11.372;2023-08-31T10:38:15;2.58;;;0.70;;
61785;SDS011;47692;53.714;11.372;2023-08-31T10:41:00;1.23;;;0.60;;
61785;SDS011;47692;53.714;11.372;2023-08-31T10:43:27;2.33;;;0.65;;
61785;SDS011;47692;53.714;11.372;2023-08-31T10:49:12;1.25;;;0.60;;
61785;SDS011;47692;53.714;11.372;2023-08-31T10:51:40;1.33;;;0.60;;
61785;SDS011;47692;53.714;11.372;2023-08-31T10:54:11;1.08;;;0.40;;
61785;SDS011;47692;53.714;11.372;2023-08-31T10:59:24;1.98;;;0.55;;
61785;SDS011;47692;53.714;11.372;2023-08-31T11:02:08;2.25;;;0.57;;
61785;SDS011;47692;53.714;11.372;2023-08-31T11:07:19;2.33;;;0.55;;
61785;SDS011;47692;53.714;11.372;2023-08-31T11:09:48;2.50;;;0.50;;
61785;SDS011;47692;53.714;11.372;2023-08-31T11:12:13;1.15;;;0.50;;
61785;SDS011;47692;53.714;11.372;2023-08-31T11:14:39;1.60;;;0.50;;
61785;SDS011;47692;53.714;11.372;2023-08-31T11:17:04;3.28;;;0.70;;
61785;SDS011;47692;53.714;11.372;2023-08-31T11:19:31;1.42;;;0.50;;
61785;SDS011;47692;53.714;11.372;2023-08-31T11:21:57;3.20;;;0.60;;
61785;SDS011;47692;53.714;11.372;2023-08-31T11:24:22;1.38;;;0.35;;
61785;SDS011;47692;53.714;11.372;2023-08-31T11:26:49;1.67;;;0.40;;
61785;SDS011;47692;53.714;11.372;2023-08-31T11:29:15;3.92;;;0.63;;
61785;SDS011;47692;53.714;11.372;2023-08-31T11:31:40;2.17;;;0.57;;
61785;SDS011;47692;53.714;11.372;2023-08-31T11:34:06;2.25;;;0.82;;
61785;SDS011;47692;53.714;11.372;2023-08-31T11:36:36;2.08;;;0.45;;
61785;SDS011;47692;53.714;11.372;2023-08-31T11:39:02;4.80;;;0.95;;
61785;SDS011;47692;53.714;11.372;2023-08-31T11:41:34;1.67;;;0.70;;
61785;SDS011;47692;53.714;11.372;2023-08-31T11:44:03;2.65;;;1.40;;
61785;SDS011;47692;53.714;11.372;2023-08-31T11:46:29;2.38;;;0.70;;
61785;SDS011;47692;53.714;11.372;2023-08-31T11:48:56;1.23;;;0.70;;
61785;SDS011;47692;53.714;11.372;2023-08-31T11:51:23;3.33;;;0.70;;
61785;SDS011;47692;53.714;11.372;2023-08-31T11:53:49;1.65;;;0.50;;
61785;SDS011;47692;53.714;11.372;2023-08-31T11:56:15;1.67;;;0.50;;
61785;SDS011;47692;53.714;11.372;2023-08-31T11:58:41;2.70;;;0.60;;
61785;SDS011;47692;53.714;11.372;2023-08-31T12:01:17;3.53;;;0.80;;
61785;SDS011;47692;53.714;11.372;2023-08-31T12:03:43;1.83;;;0.70;;
61785;SDS011;47692;53.714;11.372;2023-08-31T12:06:09;0.98;;;0.63;;
61785;SDS011;47692;53.714;11.372;2023-08-31T12:08:36;1.92;;;0.70;;
61785;SDS011;47692;53.714;11.372;2023-08-31T12:11:02;1.75;;;0.70;;
61785;SDS011;47692;53.714;11.372;2023-08-31T12:13:27;1.27;;;0.70;;
61785;SDS011;47692;53.714;11.372;2023-08-31T12:15:57;2.70;;;0.93;;
61785;SDS011;47692;53.714;11.372;2023-08-31T12:18:22;1.50;;;0.60;;
61785;SDS011;47692;53.714;11.372;2023-08-31T12:20:51;1.20;;;0.65;;
61785;SDS011;47692;53.714;11.372;2023-08-31T12:23:17;1.20;;;0.60;;
61785;SDS011;47692;53.714;11.372;2023-08-31T12:25:48;1.42;;;0.55;;
61785;SDS011;47692;53.714;11.372;2023-08-31T12:28:16;2.15;;;0.65;;
61785;SDS011;47692;53.714;11.372;2023-08-31T12:30:42;1.75;;;0.70;;
61785;SDS011;47692;53.714;11.372;2023-08-31T12:33:11;0.80;;;0.40;;
61785;SDS011;47692;53.714;11.372;2023-08-31T12:35:36;1.67;;;0.68;;
61785;SDS011;47692;53.714;11.372;2023-08-31T12:38:01;2.70;;;0.95;;
61785;SDS011;47692;53.714;11.372;2023-08-31T12:40:27;1.92;;;0.55;;
61785;SDS011;47692;53.714;11.372;2023-08-31T12:42:52;1.38;;;0.60;;
61785;SDS011;47692;53.714;11.372;2023-08-31T12:45:17;1.25;;;0.70;;
61785;SDS011;47692;53.714;11.372;2023-08-31T12:47:43;1.23;;;0.80;;
61785;SDS011;47692;53.714;11.372;2023-08-31T12:50:08;2.75;;;1.00;;
61785;SDS011;47692;53.714;11.372;2023-08-31T12:52:33;3.78;;;0.98;;
61785;SDS011;47692;53.714;11.372;2023-08-31T12:54:59;2.47;;;0.60;;
61785;SDS011;47692;53.714;11.372;2023-08-31T12:57:24;1.52;;;0.80;;
61785;SDS011;47692;53.714;11.372;2023-08-31T12:59:50;2.22;;;0.80;;
61785;SDS011;47692;53.714;11.372;2023-08-31T13:02:15;1.30;;;0.80;;
61785;SDS011;47692;53.714;11.372;2023-08-31T13:04:40;2.28;;;0.90;;
61785;SDS011;47692;53.714;11.372;2023-08-31T13:07:06;1.50;;;0.70;;
61785;SDS011;47692;53.714;11.372;2023-08-31T13:09:31;2.42;;;0.60;;
61785;SDS011;47692;53.714;11.372;2023-08-31T13:11:56;1.85;;;0.80;;
61785;SDS011;47692;53.714;11.372;2023-08-31T13:14:21;1.92;;;0.90;;
61785;SDS011;47692;53.714;11.372;2023-08-31T13:16:47;2.42;;;0.90;;
61785;SDS011;47692;53.714;11.372;2023-08-31T13:19:12;2.53;;;0.77;;
61785;SDS011;47692;53.714;11.372;2023-08-31T13:21:38;2.08;;;0.90;;
61785;SDS011;47692;53.714;11.372;2023-08-31T13:24:04;1.50;;;0.93;;
61785;SDS011;47692;53.714;11.372;2023-08-31T13:26:29;1.45;;;0.65;;
61785;SDS011;47692;53.714;11.372;2023-08-31T13:28:55;3.30;;;1.10;;
61785;SDS011;47692;53.714;11.372;2023-08-31T13:31:20;1.38;;;0.80;;
61785;SDS011;47692;53.714;11.372;2023-08-31T13:33:46;2.40;;;0.70;;
61785;SDS011;47692;53.714;11.372;2023-08-31T13:36:11;1.45;;;0.90;;
61785;SDS011;47692;53.714;11.372;2023-08-31T13:38:37;1.30;;;0.70;;
61785;SDS011;47692;53.714;11.372;2023-08-31T13:41:02;3.25;;;0.70;;
61785;SDS011;47692;53.714;11.372;2023-08-31T13:43:28;3.17;;;1.20;;
61785;SDS011;47692;53.714;11.372;2023-08-31T13:45:54;2.58;;;1.10;;
61785;SDS011;47692;53.714;11.372;2023-08-31T13:48:19;1.45;;;0.77;;
61785;SDS011;47692;53.714;11.372;2023-08-31T13:50:48;3.55;;;1.20;;
61785;SDS011;47692;53.714;11.372;2023-08-31T13:53:14;1.90;;;1.27;;
61785;SDS011;47692;53.714;11.372;2023-08-31T13:55:39;2.30;;;1.30;;
61785;SDS011;47692;53.714;11.372;2023-08-31T13:58:05;2.67;;;1.30;;
61785;SDS011;47692;53.714;11.372;2023-08-31T14:00:32;2.88;;;1.58;;
61785;SDS011;47692;53.714;11.372;2023-08-31T14:02:58;3.40;;;1.80;;
61785;SDS011;47692;53.714;11.372;2023-08-31T14:05:27;3.22;;;1.75;;
61785;SDS011;47692;53.714;11.372;2023-08-31T14:07:52;5.15;;;1.50;;
61785;SDS011;47692;53.714;11.372;2023-08-31T14:10:18;3.72;;;1.52;;
61785;SDS011;47692;53.714;11.372;2023-08-31T14:12:45;2.25;;;1.40;;
61785;SDS011;47692;53.714;11.372;2023-08-31T14:15:12;2.45;;;1.08;;
61785;SDS011;47692;53.714;11.372;2023-08-31T14:17:37;2.88;;;1.10;;
61785;SDS011;47692;53.714;11.372;2023-08-31T14:20:03;1.13;;;0.93;;
61785;SDS011;47692;53.714;11.372;2023-08-31T14:22:31;3.00;;;1.02;;
61785;SDS011;47692;53.714;11.372;2023-08-31T14:24:56;1.92;;;0.95;;
61785;SDS011;47692;53.714;11.372;2023-08-31T14:27:22;1.85;;;0.80;;
61785;SDS011;47692;53.714;11.372;2023-08-31T14:29:50;2.25;;;0.90;;
61785;SDS011;47692;53.714;11.372;2023-08-31T14:32:15;1.70;;;0.93;;
61785;SDS011;47692;53.714;11.372;2023-08-31T14:34:41;1.15;;;0.80;;
61785;SDS011;47692;53.714;11.372;2023-08-31T14:37:06;1.65;;;0.73;;
61785;SDS011;47692;53.714;11.372;2023-08-31T14:39:32;2.42;;;0.90;;
61785;SDS011;47692;53.714;11.372;2023-08-31T14:41:57;3.83;;;1.10;;
61785;SDS011;47692;53.714;11.372;2023-08-31T14:44:23;2.92;;;0.77;;
61785;SDS011;47692;53.714;11.372;2023-08-31T14:46:48;1.73;;;0.70;;